DW7792 Weather Reports


Display with metric or nautical units.
time (UTC)temp
F
wind
direction
speed
MPH
gust
MPH
rain 1hr
in
rain 24hr
in
rain mn
in
humidity
%
barometer
mb
20181114061712 42 66 0.0 7.0 0.02 0.79 0.06 97 991.5
20181114060120 43 17 3.0 8.0 0.02 0.79 0.06 97 992.1
20181114054607 43 324 4.0 8.0 0.02 0.79 0.06 97 993.0
20181114053048 44 45 3.0 10.0 0.02 0.78 0.05 97 993.0
20181114051649 43 183 0.0 8.0 0.02 0.77 0.04 97 993.5
20181114050140 43 85 10.0 15.0 0.04 0.77 0.04 97 993.3
20181114044615 42 260 1.0 8.0 0.05 0.76 0.03 97 994.6
20181114043104 42 81 13.0 22.0 0.07 0.76 0.03 97 994.9
20181114041524 42 29 12.0 32.0 0.09 0.75 0.02 97 996.0
20181114040018 41 87 13.0 29.0 0.11 0.73 0.73 97 996.8
20181114034521 41 68 15.0 29.0 0.13 0.72 0.72 97 997.8
20181114033020 41 112 15.0 28.0 0.14 0.69 0.69 97 999.2
20181114031504 41 70 14.0 27.0 0.16 0.66 0.66 96 1000.9
20181114030509 41 112 11.0 26.0 0.17 0.62 0.62 100 1002.0
20181114024812 40 120 12.0 23.0 0.17 0.59 0.59 96 1002.8
20181114023135 40 107 10.0 27.0 0.18 0.55 0.55 96 1004.5
20181114021648 39 146 14.0 25.0 0.20 0.50 0.50 96 1005.2
20181114020059 39 109 11.0 26.0 0.20 0.44 0.44 96 1006.1
20181114014551 38 104 15.0 27.0 0.23 0.42 0.42 96 1006.6
20181114013059 38 122 17.0 27.0 0.21 0.36 0.36 96 1007.7
20181114011548 37 139 17.0 32.0 0.19 0.30 0.30 96 1008.3
20181114010107 36 110 16.0 26.0 0.17 0.24 0.24 96 1009.1
20181114004545 35 119 11.0 22.0 0.17 0.19 0.19 96 1010.8
20181114003037 35 131 15.0 28.0 0.14 0.14 0.14 96 1011.0
20181114001534 34 125 14.0 25.0 0.11 0.11 0.11 95 1012.1
20181114000045 34 129 14.0 27.0 0.06 0.06 0.06 95 1013.2
20181113234522 33 119 14.0 26.0 0.02 0.02 0.02 95 1014.5
20181113233036 33 131 13.0 21.0 0.00 0.00 0.00 95 1015.5
20181113231510 33 142 9.0 15.0 0.00 0.00 0.00 95 1016.3
20181113230010 33 123 12.0 22.0 0.00 0.00 0.00 95 1017.0
20181113224648 33 131 9.0 17.0 0.00 0.00 0.00 94 1017.6
20181113223224 33 131 9.0 18.0 0.00 0.00 0.00 94 1017.9
20181113221712 32 134 9.0 15.0 0.00 0.00 0.00 93 1018.3
20181113220117 32 141 6.0 16.0 0.00 0.00 0.00 91 1019.1
20181113214602 32 123 8.0 12.0 0.00 0.00 0.00 88 1020.0
20181113213050 33 149 9.0 14.0 0.00 0.00 0.00 82 1020.3
20181113211600 34 185 8.0 16.0 0.00 0.00 0.00 75 1020.8
20181113210105 35 187 11.0 21.0 0.00 0.00 0.00 66 1021.7
20181113204551 35 120 5.0 15.0 0.00 0.00 0.00 60 1022.7
20181113203058 35 147 4.0 10.0 0.00 0.00 0.00 57 1022.8
20181113201536 35 177 4.0 10.0 0.00 0.00 0.00 58 1023.2
20181113200030 35 170 4.0 11.0 0.00 0.00 0.00 56 1023.7
20181113194606 35 158 3.0 10.0 0.00 0.00 0.00 56 1024.1
20181113193102 35 128 6.0 8.0 0.00 0.00 0.00 57 1024.6
20181113191551 35 143 3.0 7.0 0.00 0.00 0.00 57 1024.9
20181113190057 35 174 3.0 6.0 0.00 0.00 0.00 56 1025.2
20181113184535 35 165 1.0 5.0 0.00 0.00 0.00 58 1025.2
20181113183018 35 197 3.0 7.0 0.00 0.00 0.00 59 1025.7
20181113181540 35 195 2.0 8.0 0.00 0.00 0.00 63 1025.9
20181113180018 35 227 4.0 8.0 0.00 0.00 0.00 65 1026.2
20181113174519 35 211 3.0 8.0 0.00 0.00 0.00 65 1026.4
20181113173027 35 196 4.0 10.0 0.00 0.00 0.00 66 1026.7
20181113171539 35 218 2.0 8.0 0.00 0.00 0.00 65 1026.8
20181113170018 35 212 1.0 7.0 0.00 0.00 0.00 64 1027.0
20181113164512 35 222 0.0 6.0 0.00 0.00 0.00 65 1026.9
20181113163008 35 224 1.0 5.0 0.00 0.00 0.00 65 1027.3
20181113161536 34 249 4.0 7.0 0.00 0.00 0.00 65 1027.6
20181113160033 34 220 2.0 8.0 0.00 0.00 0.00 66 1027.4
20181113154513 34 284 3.0 7.0 0.00 0.00 0.00 67 1027.4
20181113153142 34 236 5.0 8.0 0.00 0.00 0.00 68 1027.7
20181113151723 33 256 4.0 8.0 0.00 0.00 0.00 70 1027.8
20181113150117 33 270 3.0 9.0 0.00 0.00 0.00 71 1028.1
20181113144637 33 260 5.0 8.0 0.00 0.00 0.00 73 1028.3
20181113143239 32 261 6.0 9.0 0.00 0.00 0.00 75 1028.2
20181113141651 32 249 4.0 8.0 0.00 0.00 0.00 77 1028.5
20181113140213 31 260 4.0 10.0 0.00 0.00 0.00 78 1028.9
20181113134650 31 256 5.0 10.0 0.00 0.00 0.00 79 1028.9
20181113133119 31 262 6.0 10.0 0.00 0.00 0.00 79 1029.0
20181113131623 30 270 6.0 11.0 0.00 0.00 0.00 79 1029.0
20181113130112 30 267 5.0 11.0 0.00 0.00 0.00 79 1029.1
20181113124612 30 253 5.0 11.0 0.00 0.00 0.00 80 1029.3
20181113123057 30 274 7.0 11.0 0.00 0.00 0.00 80 1028.8
20181113121629 29 251 5.0 10.0 0.00 0.00 0.00 80 1028.6
20181113120128 29 251 5.0 11.0 0.00 0.00 0.00 80 1028.5
20181113114609 29 278 5.0 9.0 0.00 0.00 0.00 80 1028.8
20181113113110 29 251 6.0 11.0 0.00 0.00 0.00 80 1028.9
20181113111608 29 249 5.0 9.0 0.00 0.00 0.00 80 1028.8
20181113110121 30 265 6.0 13.0 0.00 0.00 0.00 80 1028.4
20181113104551 30 275 6.0 11.0 0.00 0.00 0.00 80 1028.1
20181113103108 30 260 4.0 8.0 0.00 0.00 0.00 80 1028.4
20181113101624 31 239 5.0 10.0 0.00 0.00 0.00 79 1028.3
20181113100109 32 316 7.0 17.0 0.00 0.00 0.00 79 1027.9
20181113094644 32 262 9.0 19.0 0.00 0.00 0.00 79 1028.0
20181113093137 32 298 8.0 16.0 0.00 0.00 0.00 79 1027.9
20181113091611 32 280 7.0 15.0 0.00 0.00 0.00 79 1028.0
20181113090109 32 299 7.0 16.0 0.00 0.00 0.00 79 1028.0
20181113084605 32 310 9.0 16.0 0.00 0.00 0.00 79 1028.0
20181113083053 32 295 7.0 17.0 0.00 0.00 0.00 78 1027.9
20181113081610 32 305 9.0 21.0 0.00 0.00 0.00 77 1028.0
20181113080028 32 293 10.0 19.0 0.00 0.00 0.00 77 1027.6
20181113074525 32 291 8.0 21.0 0.00 0.00 0.00 77 1027.3
20181113073033 32 218 9.0 16.0 0.00 0.00 0.00 76 1027.4
20181113071535 32 303 8.0 15.0 0.00 0.00 0.00 76 1027.1
20181113070028 32 262 8.0 19.0 0.00 0.00 0.00 75 1027.1
20181113064517 32 281 11.0 20.0 0.00 0.00 0.00 75 1027.0
20181113063039 32 321 14.0 21.0 0.00 0.00 0.00 74 1026.5